sensor_id;sensor_type;location;lat;lon;timestamp;temperature;humidity
69776;DHT22;57049;51.450;-2.516;2024-01-06T00:02:05;6.00;94.86
69776;DHT22;57049;51.450;-2.516;2024-01-06T00:04:31;5.93;94.70
69776;DHT22;57049;51.450;-2.516;2024-01-06T00:06:56;5.86;95.00
69776;DHT22;57049;51.450;-2.516;2024-01-06T00:09:22;5.74;95.47
69776;DHT22;57049;51.450;-2.516;2024-01-06T00:11:47;5.66;95.76
69776;DHT22;57049;51.450;-2.516;2024-01-06T00:14:12;5.56;96.27
69776;DHT22;57049;51.450;-2.516;2024-01-06T00:16:38;5.53;96.35
69776;DHT22;57049;51.450;-2.516;2024-01-06T00:19:03;5.52;96.76
69776;DHT22;57049;51.450;-2.516;2024-01-06T00:21:29;5.53;96.90
69776;DHT22;57049;51.450;-2.516;2024-01-06T00:23:54;5.47;96.87
69776;DHT22;57049;51.450;-2.516;2024-01-06T00:26:23;5.42;97.09
69776;DHT22;57049;51.450;-2.516;2024-01-06T00:28:49;5.42;96.94
69776;DHT22;57049;51.450;-2.516;2024-01-06T00:31:15;5.38;97.25
69776;DHT22;57049;51.450;-2.516;2024-01-06T00:33:42;5.39;97.23
69776;DHT22;57049;51.450;-2.516;2024-01-06T00:36:08;5.38;97.66
69776;DHT22;57049;51.450;-2.516;2024-01-06T00:38:34;5.40;97.58
69776;DHT22;57049;51.450;-2.516;2024-01-06T00:41:03;5.42;97.58
69776;DHT22;57049;51.450;-2.516;2024-01-06T00:43:28;5.38;97.60
69776;DHT22;57049;51.450;-2.516;2024-01-06T00:45:54;5.36;97.74
69776;DHT22;57049;51.450;-2.516;2024-01-06T00:48:20;5.39;97.83
69776;DHT22;57049;51.450;-2.516;2024-01-06T00:50:45;5.43;97.83
69776;DHT22;57049;51.450;-2.516;2024-01-06T00:53:11;5.46;97.62
69776;DHT22;57049;51.450;-2.516;2024-01-06T00:55:37;5.53;97.53
69776;DHT22;57049;51.450;-2.516;2024-01-06T00:58:03;5.55;97.34
69776;DHT22;57049;51.450;-2.516;2024-01-06T01:00:28;5.56;97.09
69776;DHT22;57049;51.450;-2.516;2024-01-06T01:02:54;5.57;97.22
69776;DHT22;57049;51.450;-2.516;2024-01-06T01:05:19;5.53;97.08
69776;DHT22;57049;51.450;-2.516;2024-01-06T01:07:44;5.55;96.81
69776;DHT22;57049;51.450;-2.516;2024-01-06T01:10:10;5.52;96.83
69776;DHT22;57049;51.450;-2.516;2024-01-06T01:12:36;5.50;96.92
69776;DHT22;57049;51.450;-2.516;2024-01-06T01:15:02;5.52;97.12
69776;DHT22;57049;51.450;-2.516;2024-01-06T01:17:30;5.50;96.98
69776;DHT22;57049;51.450;-2.516;2024-01-06T01:19:56;5.53;97.09
69776;DHT22;57049;51.450;-2.516;2024-01-06T01:22:21;5.49;97.07
69776;DHT22;57049;51.450;-2.516;2024-01-06T01:24:47;5.47;97.02
69776;DHT22;57049;51.450;-2.516;2024-01-06T01:27:12;5.36;97.10
69776;DHT22;57049;51.450;-2.516;2024-01-06T01:29:38;5.28;97.30
69776;DHT22;57049;51.450;-2.516;2024-01-06T01:32:03;5.21;97.25
69776;DHT22;57049;51.450;-2.516;2024-01-06T01:34:29;5.14;97.33
69776;DHT22;57049;51.450;-2.516;2024-01-06T01:36:54;5.04;97.59
69776;DHT22;57049;51.450;-2.516;2024-01-06T01:39:20;4.92;97.83
69776;DHT22;57049;51.450;-2.516;2024-01-06T01:41:46;4.85;98.14
69776;DHT22;57049;51.450;-2.516;2024-01-06T01:44:11;4.78;98.05
69776;DHT22;57049;51.450;-2.516;2024-01-06T01:46:37;4.77;98.35
69776;DHT22;57049;51.450;-2.516;2024-01-06T01:49:04;4.70;98.28
69776;DHT22;57049;51.450;-2.516;2024-01-06T01:51:32;4.71;98.21
69776;DHT22;57049;51.450;-2.516;2024-01-06T01:54:03;4.68;98.22
69776;DHT22;57049;51.450;-2.516;2024-01-06T01:56:30;4.65;98.10
69776;DHT22;57049;51.450;-2.516;2024-01-06T01:59:06;4.53;98.16
69776;DHT22;57049;51.450;-2.516;2024-01-06T02:01:33;4.46;98.47
69776;DHT22;57049;51.450;-2.516;2024-01-06T02:03:59;4.53;98.36
69776;DHT22;57049;51.450;-2.516;2024-01-06T02:06:24;4.52;98.31
69776;DHT22;57049;51.450;-2.516;2024-01-06T02:08:50;4.50;98.18
69776;DHT22;57049;51.450;-2.516;2024-01-06T02:11:15;4.49;98.38
69776;DHT22;57049;51.450;-2.516;2024-01-06T02:13:41;4.54;98.14
69776;DHT22;57049;51.450;-2.516;2024-01-06T02:16:06;4.50;98.16
69776;DHT22;57049;51.450;-2.516;2024-01-06T02:18:32;4.54;97.90
69776;DHT22;57049;51.450;-2.516;2024-01-06T02:21:00;4.52;98.03
69776;DHT22;57049;51.450;-2.516;2024-01-06T02:23:26;4.53;97.96
69776;DHT22;57049;51.450;-2.516;2024-01-06T02:25:52;4.46;98.15
69776;DHT22;57049;51.450;-2.516;2024-01-06T02:28:17;4.37;98.29
69776;DHT22;57049;51.450;-2.516;2024-01-06T02:30:43;4.37;98.50
69776;DHT22;57049;51.450;-2.516;2024-01-06T02:33:08;4.36;98.77
69776;DHT22;57049;51.450;-2.516;2024-01-06T02:35:34;4.33;98.78
69776;DHT22;57049;51.450;-2.516;2024-01-06T02:38:00;4.32;98.75
69776;DHT22;57049;51.450;-2.516;2024-01-06T02:40:26;4.29;98.69
69776;DHT22;57049;51.450;-2.516;2024-01-06T02:42:51;4.34;98.75
69776;DHT22;57049;51.450;-2.516;2024-01-06T02:45:17;4.39;98.60
69776;DHT22;57049;51.450;-2.516;2024-01-06T02:47:42;4.36;98.71
69776;DHT22;57049;51.450;-2.516;2024-01-06T02:50:08;4.42;98.40
69776;DHT22;57049;51.450;-2.516;2024-01-06T02:52:33;4.39;98.39
69776;DHT22;57049;51.450;-2.516;2024-01-06T02:54:58;4.39;98.53
69776;DHT22;57049;51.450;-2.516;2024-01-06T02:57:24;4.39;98.49
69776;DHT22;57049;51.450;-2.516;2024-01-06T02:59:50;4.37;98.38
69776;DHT22;57049;51.450;-2.516;2024-01-06T03:02:17;4.42;97.95
69776;DHT22;57049;51.450;-2.516;2024-01-06T03:04:42;4.40;98.08
69776;DHT22;57049;51.450;-2.516;2024-01-06T03:07:07;4.36;98.01
69776;DHT22;57049;51.450;-2.516;2024-01-06T03:09:33;4.34;97.85
69776;DHT22;57049;51.450;-2.516;2024-01-06T03:11:58;4.29;98.14
69776;DHT22;57049;51.450;-2.516;2024-01-06T03:14:24;4.30;97.70
69776;DHT22;57049;51.450;-2.516;2024-01-06T03:16:49;4.30;97.80
69776;DHT22;57049;51.450;-2.516;2024-01-06T03:19:15;4.28;97.81
69776;DHT22;57049;51.450;-2.516;2024-01-06T03:21:40;4.24;97.71
69776;DHT22;57049;51.450;-2.516;2024-01-06T03:24:07;4.20;97.84
69776;DHT22;57049;51.450;-2.516;2024-01-06T03:26:34;4.14;97.89
69776;DHT22;57049;51.450;-2.516;2024-01-06T03:28:59;4.12;98.12
69776;DHT22;57049;51.450;-2.516;2024-01-06T03:31:25;4.13;98.00
69776;DHT22;57049;51.450;-2.516;2024-01-06T03:33:50;4.07;98.13
69776;DHT22;57049;51.450;-2.516;2024-01-06T03:36:18;3.99;98.01
69776;DHT22;57049;51.450;-2.516;2024-01-06T03:38:44;3.99;98.27
69776;DHT22;57049;51.450;-2.516;2024-01-06T03:41:09;3.95;98.08
69776;DHT22;57049;51.450;-2.516;2024-01-06T03:43:35;3.93;98.45
69776;DHT22;57049;51.450;-2.516;2024-01-06T03:46:00;3.86;98.44
69776;DHT22;57049;51.450;-2.516;2024-01-06T03:48:26;3.83;98.65
69776;DHT22;57049;51.450;-2.516;2024-01-06T03:50:51;3.83;98.71
69776;DHT22;57049;51.450;-2.516;2024-01-06T03:53:17;3.79;98.58
69776;DHT22;57049;51.450;-2.516;2024-01-06T03:55:42;3.78;98.76
69776;DHT22;57049;51.450;-2.516;2024-01-06T03:58:08;3.78;99.11
69776;DHT22;57049;51.450;-2.516;2024-01-06T04:00:33;3.74;99.04
69776;DHT22;57049;51.450;-2.516;2024-01-06T04:02:59;3.72;99.06
69776;DHT22;57049;51.450;-2.516;2024-01-06T04:05:24;3.75;99.13
69776;DHT22;57049;51.450;-2.516;2024-01-06T04:07:50;3.78;99.07
69776;DHT22;57049;51.450;-2.516;2024-01-06T04:10:15;3.71;99.09
69776;DHT22;57049;51.450;-2.516;2024-01-06T04:12:41;3.67;99.21
69776;DHT22;57049;51.450;-2.516;2024-01-06T04:15:06;3.58;99.17
69776;DHT22;57049;51.450;-2.516;2024-01-06T04:17:32;3.58;99.22
69776;DHT22;57049;51.450;-2.516;2024-01-06T04:19:58;3.58;99.48
69776;DHT22;57049;51.450;-2.516;2024-01-06T04:22:24;3.60;99.48
69776;DHT22;57049;51.450;-2.516;2024-01-06T04:24:49;3.52;99.69
69776;DHT22;57049;51.450;-2.516;2024-01-06T04:27:14;3.52;99.63
69776;DHT22;57049;51.450;-2.516;2024-01-06T04:29:40;3.45;99.67
69776;DHT22;57049;51.450;-2.516;2024-01-06T04:32:05;3.35;99.73
69776;DHT22;57049;51.450;-2.516;2024-01-06T04:34:32;3.30;99.82
69776;DHT22;57049;51.450;-2.516;2024-01-06T04:36:58;3.26;99.99
69776;DHT22;57049;51.450;-2.516;2024-01-06T04:39:23;3.17;99.99
69776;DHT22;57049;51.450;-2.516;2024-01-06T04:41:49;3.17;99.99
69776;DHT22;57049;51.450;-2.516;2024-01-06T04:44:14;3.08;99.99
69776;DHT22;57049;51.450;-2.516;2024-01-06T04:46:40;2.99;99.99
69776;DHT22;57049;51.450;-2.516;2024-01-06T04:49:05;3.04;99.99
69776;DHT22;57049;51.450;-2.516;2024-01-06T04:51:31;3.01;99.99
69776;DHT22;57049;51.450;-2.516;2024-01-06T04:53:56;2.95;99.99
69776;DHT22;57049;51.450;-2.516;2024-01-06T04:56:21;2.80;99.99
69776;DHT22;57049;51.450;-2.516;2024-01-06T04:58:47;2.82;99.99
69776;DHT22;57049;51.450;-2.516;2024-01-06T05:01:13;2.76;99.99
69776;DHT22;57049;51.450;-2.516;2024-01-06T05:03:38;2.66;99.99
69776;DHT22;57049;51.450;-2.516;2024-01-06T05:06:04;2.59;99.99
69776;DHT22;57049;51.450;-2.516;2024-01-06T05:08:29;2.53;99.99
69776;DHT22;57049;51.450;-2.516;2024-01-06T05:10:57;2.52;99.99
69776;DHT22;57049;51.450;-2.516;2024-01-06T05:13:23;2.44;99.99
69776;DHT22;57049;51.450;-2.516;2024-01-06T05:15:48;2.38;99.99
69776;DHT22;57049;51.450;-2.516;2024-01-06T05:18:14;2.34;99.99
69776;DHT22;57049;51.450;-2.516;2024-01-06T05:20:39;2.28;99.99
69776;DHT22;57049;51.450;-2.516;2024-01-06T05:23:06;2.21;99.99
69776;DHT22;57049;51.450;-2.516;2024-01-06T05:25:32;2.17;99.99
69776;DHT22;57049;51.450;-2.516;2024-01-06T05:27:58;2.13;99.99
69776;DHT22;57049;51.450;-2.516;2024-01-06T05:30:23;2.11;99.99
69776;DHT22;57049;51.450;-2.516;2024-01-06T05:32:49;2.17;99.99
69776;DHT22;57049;51.450;-2.516;2024-01-06T05:35:16;2.11;99.99
69776;DHT22;57049;51.450;-2.516;2024-01-06T05:37:41;2.08;99.99
69776;DHT22;57049;51.450;-2.516;2024-01-06T05:40:07;2.05;99.99
69776;DHT22;57049;51.450;-2.516;2024-01-06T05:42:33;2.04;99.99
69776;DHT22;57049;51.450;-2.516;2024-01-06T05:44:58;2.08;99.99
69776;DHT22;57049;51.450;-2.516;2024-01-06T05:47:24;2.11;99.99
69776;DHT22;57049;51.450;-2.516;2024-01-06T05:49:49;2.13;99.99
69776;DHT22;57049;51.450;-2.516;2024-01-06T05:52:15;2.17;99.99
69776;DHT22;57049;51.450;-2.516;2024-01-06T05:54:41;2.20;99.99
69776;DHT22;57049;51.450;-2.516;2024-01-06T05:57:07;2.24;99.99
69776;DHT22;57049;51.450;-2.516;2024-01-06T05:59:33;2.32;99.99
69776;DHT22;57049;51.450;-2.516;2024-01-06T06:01:59;2.29;99.99
69776;DHT22;57049;51.450;-2.516;2024-01-06T06:04:24;2.34;99.99
69776;DHT22;57049;51.450;-2.516;2024-01-06T06:06:50;2.32;99.99
69776;DHT22;57049;51.450;-2.516;2024-01-06T06:09:16;2.35;99.99
69776;DHT22;57049;51.450;-2.516;2024-01-06T06:11:41;2.36;99.99
69776;DHT22;57049;51.450;-2.516;2024-01-06T06:14:07;2.35;99.99
69776;DHT22;57049;51.450;-2.516;2024-01-06T06:16:32;2.32;99.99
69776;DHT22;57049;51.450;-2.516;2024-01-06T06:18:58;2.32;99.99
69776;DHT22;57049;51.450;-2.516;2024-01-06T06:21:23;2.38;99.99
69776;DHT22;57049;51.450;-2.516;2024-01-06T06:23:49;2.42;99.99
69776;DHT22;57049;51.450;-2.516;2024-01-06T06:26:15;2.41;99.99
69776;DHT22;57049;51.450;-2.516;2024-01-06T06:28:41;2.41;99.99
69776;DHT22;57049;51.450;-2.516;2024-01-06T06:31:07;2.39;99.99
69776;DHT22;57049;51.450;-2.516;2024-01-06T06:33:32;2.35;99.99
69776;DHT22;57049;51.450;-2.516;2024-01-06T06:36:01;2.39;99.99
69776;DHT22;57049;51.450;-2.516;2024-01-06T06:38:27;2.41;99.99
69776;DHT22;57049;51.450;-2.516;2024-01-06T06:40:53;2.42;99.99
69776;DHT22;57049;51.450;-2.516;2024-01-06T06:43:18;2.45;99.99
69776;DHT22;57049;51.450;-2.516;2024-01-06T06:45:44;2.46;99.99
69776;DHT22;57049;51.450;-2.516;2024-01-06T06:48:10;2.49;99.99
69776;DHT22;57049;51.450;-2.516;2024-01-06T06:50:36;2.52;99.99
69776;DHT22;57049;51.450;-2.516;2024-01-06T06:53:01;2.60;99.99
69776;DHT22;57049;51.450;-2.516;2024-01-06T06:55:27;2.63;99.99
69776;DHT22;57049;51.450;-2.516;2024-01-06T06:57:53;2.71;99.99
69776;DHT22;57049;51.450;-2.516;2024-01-06T07:00:19;2.75;99.99
69776;DHT22;57049;51.450;-2.516;2024-01-06T07:02:45;2.75;99.99
69776;DHT22;57049;51.450;-2.516;2024-01-06T07:05:10;2.89;99.99
69776;DHT22;57049;51.450;-2.516;2024-01-06T07:07:36;2.86;99.99
69776;DHT22;57049;51.450;-2.516;2024-01-06T07:10:03;2.95;99.99
69776;DHT22;57049;51.450;-2.516;2024-01-06T07:12:30;2.97;99.99
69776;DHT22;57049;51.450;-2.516;2024-01-06T07:14:56;3.00;99.99
69776;DHT22;57049;51.450;-2.516;2024-01-06T07:17:21;2.92;99.99
69776;DHT22;57049;51.450;-2.516;2024-01-06T07:19:47;2.87;99.99
69776;DHT22;57049;51.450;-2.516;2024-01-06T07:22:13;2.89;99.99
69776;DHT22;57049;51.450;-2.516;2024-01-06T07:24:40;2.90;99.99
69776;DHT22;57049;51.450;-2.516;2024-01-06T07:27:05;2.96;99.99
69776;DHT22;57049;51.450;-2.516;2024-01-06T07:29:31;2.99;99.99
69776;DHT22;57049;51.450;-2.516;2024-01-06T07:31:56;2.97;99.99
69776;DHT22;57049;51.450;-2.516;2024-01-06T07:34:22;2.89;99.99
69776;DHT22;57049;51.450;-2.516;2024-01-06T07:36:47;2.86;99.99
69776;DHT22;57049;51.450;-2.516;2024-01-06T07:39:13;2.89;99.99
69776;DHT22;57049;51.450;-2.516;2024-01-06T07:41:38;2.83;99.99
69776;DHT22;57049;51.450;-2.516;2024-01-06T07:44:04;2.83;99.99
69776;DHT22;57049;51.450;-2.516;2024-01-06T07:46:30;2.79;99.99
69776;DHT22;57049;51.450;-2.516;2024-01-06T07:48:57;2.75;99.99
69776;DHT22;57049;51.450;-2.516;2024-01-06T07:51:22;2.72;99.99
69776;DHT22;57049;51.450;-2.516;2024-01-06T07:53:48;2.63;99.99
69776;DHT22;57049;51.450;-2.516;2024-01-06T07:56:13;2.59;99.99
69776;DHT22;57049;51.450;-2.516;2024-01-06T07:58:39;2.50;99.99
69776;DHT22;57049;51.450;-2.516;2024-01-06T08:01:04;2.44;99.99
69776;DHT22;57049;51.450;-2.516;2024-01-06T08:03:30;2.41;99.99
69776;DHT22;57049;51.450;-2.516;2024-01-06T08:05:55;2.31;99.99
69776;DHT22;57049;51.450;-2.516;2024-01-06T08:08:21;2.22;99.99
69776;DHT22;57049;51.450;-2.516;2024-01-06T08:10:47;2.28;99.99
69776;DHT22;57049;51.450;-2.516;2024-01-06T08:13:13;2.31;99.99
69776;DHT22;57049;51.450;-2.516;2024-01-06T08:15:39;2.26;99.99
69776;DHT22;57049;51.450;-2.516;2024-01-06T08:18:04;2.31;99.99
69776;DHT22;57049;51.450;-2.516;2024-01-06T08:20:30;2.26;99.99
69776;DHT22;57049;51.450;-2.516;2024-01-06T08:22:55;2.26;99.99
69776;DHT22;57049;51.450;-2.516;2024-01-06T08:25:21;2.28;99.99
69776;DHT22;57049;51.450;-2.516;2024-01-06T08:27:46;2.25;99.99
69776;DHT22;57049;51.450;-2.516;2024-01-06T08:30:12;2.22;99.99
69776;DHT22;57049;51.450;-2.516;2024-01-06T08:32:38;2.14;99.99
69776;DHT22;57049;51.450;-2.516;2024-01-06T08:35:04;2.07;99.99
69776;DHT22;57049;51.450;-2.516;2024-01-06T08:37:30;2.03;99.99
69776;DHT22;57049;51.450;-2.516;2024-01-06T08:39:55;1.94;99.99
69776;DHT22;57049;51.450;-2.516;2024-01-06T08:42:21;1.94;99.99
69776;DHT22;57049;51.450;-2.516;2024-01-06T08:44:46;1.98;99.99
69776;DHT22;57049;51.450;-2.516;2024-01-06T08:47:12;1.97;99.99
69776;DHT22;57049;51.450;-2.516;2024-01-06T08:49:38;2.18;99.99
69776;DHT22;57049;51.450;-2.516;2024-01-06T08:52:04;2.34;99.99
69776;DHT22;57049;51.450;-2.516;2024-01-06T08:54:31;2.56;99.99
69776;DHT22;57049;51.450;-2.516;2024-01-06T08:56:56;2.66;99.99
69776;DHT22;57049;51.450;-2.516;2024-01-06T08:59:22;2.82;99.99
69776;DHT22;57049;51.450;-2.516;2024-01-06T09:01:47;2.97;99.99
69776;DHT22;57049;51.450;-2.516;2024-01-06T09:04:13;3.07;99.99
69776;DHT22;57049;51.450;-2.516;2024-01-06T09:06:38;3.16;99.99
69776;DHT22;57049;51.450;-2.516;2024-01-06T09:09:04;3.21;99.99
69776;DHT22;57049;51.450;-2.516;2024-01-06T09:11:30;3.27;99.99
69776;DHT22;57049;51.450;-2.516;2024-01-06T09:13:56;3.32;99.99
69776;DHT22;57049;51.450;-2.516;2024-01-06T09:16:21;3.38;99.99
69776;DHT22;57049;51.450;-2.516;2024-01-06T09:18:47;3.44;99.99
69776;DHT22;57049;51.450;-2.516;2024-01-06T09:21:13;3.52;99.99
69776;DHT22;57049;51.450;-2.516;2024-01-06T09:23:38;3.58;99.99
69776;DHT22;57049;51.450;-2.516;2024-01-06T09:26:04;3.62;99.99
69776;DHT22;57049;51.450;-2.516;2024-01-06T09:28:29;3.68;99.99
69776;DHT22;57049;51.450;-2.516;2024-01-06T09:30:55;3.77;99.99
69776;DHT22;57049;51.450;-2.516;2024-01-06T09:33:22;3.85;99.99
69776;DHT22;57049;51.450;-2.516;2024-01-06T09:35:47;3.98;99.99
69776;DHT22;57049;51.450;-2.516;2024-01-06T09:38:13;4.06;99.99
69776;DHT22;57049;51.450;-2.516;2024-01-06T09:40:43;4.14;99.99
69776;DHT22;57049;51.450;-2.516;2024-01-06T09:43:12;4.23;99.99
69776;DHT22;57049;51.450;-2.516;2024-01-06T09:45:38;4.33;99.99
69776;DHT22;57049;51.450;-2.516;2024-01-06T09:48:13;4.42;99.99
69776;DHT22;57049;51.450;-2.516;2024-01-06T09:50:43;4.47;99.99
69776;DHT22;57049;51.450;-2.516;2024-01-06T09:53:11;4.54;99.99
69776;DHT22;57049;51.450;-2.516;2024-01-06T09:55:37;4.61;99.99
69776;DHT22;57049;51.450;-2.516;2024-01-06T09:58:04;4.65;99.99
69776;DHT22;57049;51.450;-2.516;2024-01-06T10:00:31;4.71;99.99
69776;DHT22;57049;51.450;-2.516;2024-01-06T10:02:57;4.74;99.99
69776;DHT22;57049;51.450;-2.516;2024-01-06T10:05:23;4.75;99.99
69776;DHT22;57049;51.450;-2.516;2024-01-06T10:07:49;4.75;99.99
69776;DHT22;57049;51.450;-2.516;2024-01-06T10:10:15;4.75;99.99
69776;DHT22;57049;51.450;-2.516;2024-01-06T10:12:41;4.78;99.99
69776;DHT22;57049;51.450;-2.516;2024-01-06T10:15:09;4.74;99.83
69776;DHT22;57049;51.450;-2.516;2024-01-06T10:17:38;4.77;99.59
69776;DHT22;57049;51.450;-2.516;2024-01-06T10:20:09;4.81;99.56
69776;DHT22;57049;51.450;-2.516;2024-01-06T10:22:40;4.87;99.99
69776;DHT22;57049;51.450;-2.516;2024-01-06T10:25:07;4.91;99.48
69776;DHT22;57049;51.450;-2.516;2024-01-06T10:27:40;4.89;99.19
69776;DHT22;57049;51.450;-2.516;2024-01-06T10:30:07;4.84;99.53
69776;DHT22;57049;51.450;-2.516;2024-01-06T10:32:33;4.77;99.24
69776;DHT22;57049;51.450;-2.516;2024-01-06T10:34:59;4.70;99.12
69776;DHT22;57049;51.450;-2.516;2024-01-06T10:37:26;4.64;99.42
69776;DHT22;57049;51.450;-2.516;2024-01-06T10:40:15;4.61;99.66
69776;DHT22;57049;51.450;-2.516;2024-01-06T10:42:41;4.58;99.58
69776;DHT22;57049;51.450;-2.516;2024-01-06T10:45:09;4.58;99.42
69776;DHT22;57049;51.450;-2.516;2024-01-06T10:47:36;4.58;99.41
69776;DHT22;57049;51.450;-2.516;2024-01-06T10:50:02;4.56;99.65
69776;DHT22;57049;51.450;-2.516;2024-01-06T10:52:28;4.56;99.90
69776;DHT22;57049;51.450;-2.516;2024-01-06T10:54:55;4.56;99.99
69776;DHT22;57049;51.450;-2.516;2024-01-06T10:57:20;4.58;99.99
69776;DHT22;57049;51.450;-2.516;2024-01-06T10:59:49;4.60;99.99
69776;DHT22;57049;51.450;-2.516;2024-01-06T11:02:15;4.61;99.99
69776;DHT22;57049;51.450;-2.516;2024-01-06T11:04:48;4.80;99.43
69776;DHT22;57049;51.450;-2.516;2024-01-06T11:07:16;4.89;98.90
69776;DHT22;57049;51.450;-2.516;2024-01-06T11:10:10;5.05;98.77
69776;DHT22;57049;51.450;-2.516;2024-01-06T11:12:32;5.19;97.54
69776;DHT22;57049;51.450;-2.516;2024-01-06T11:14:58;5.24;97.74
69776;DHT22;57049;51.450;-2.516;2024-01-06T11:20:14;5.39;97.65
69776;DHT22;57049;51.450;-2.516;2024-01-06T11:22:39;5.45;97.69
69776;DHT22;57049;51.450;-2.516;2024-01-06T11:25:06;5.53;97.92
69776;DHT22;57049;51.450;-2.516;2024-01-06T11:27:32;5.65;98.01
69776;DHT22;57049;51.450;-2.516;2024-01-06T11:30:00;5.78;97.90
69776;DHT22;57049;51.450;-2.516;2024-01-06T11:32:33;5.94;97.74
69776;DHT22;57049;51.450;-2.516;2024-01-06T11:35:16;6.07;97.33
69776;DHT22;57049;51.450;-2.516;2024-01-06T11:43:07;6.31;97.13
69776;DHT22;57049;51.450;-2.516;2024-01-06T11:45:34;6.37;96.56
69776;DHT22;57049;51.450;-2.516;2024-01-06T11:48:02;6.45;96.43
69776;DHT22;57049;51.450;-2.516;2024-01-06T11:50:32;6.48;95.34
69776;DHT22;57049;51.450;-2.516;2024-01-06T11:52:58;6.51;94.60
69776;DHT22;57049;51.450;-2.516;2024-01-06T11:55:25;6.46;91.83
69776;DHT22;57049;51.450;-2.516;2024-01-06T11:57:54;6.48;92.03
69776;DHT22;57049;51.450;-2.516;2024-01-06T12:00:19;6.42;91.53
69776;DHT22;57049;51.450;-2.516;2024-01-06T12:02:45;6.44;92.28
69776;DHT22;57049;51.450;-2.516;2024-01-06T12:05:17;6.56;91.25
69776;DHT22;57049;51.450;-2.516;2024-01-06T12:07:56;6.67;90.66
69776;DHT22;57049;51.450;-2.516;2024-01-06T12:10:22;6.69;90.85
69776;DHT22;57049;51.450;-2.516;2024-01-06T12:15:26;6.45;91.48
69776;DHT22;57049;51.450;-2.516;2024-01-06T12:17:52;6.32;91.45
69776;DHT22;57049;51.450;-2.516;2024-01-06T12:20:17;6.37;91.41
69776;DHT22;57049;51.450;-2.516;2024-01-06T12:22:43;6.49;91.94
69776;DHT22;57049;51.450;-2.516;2024-01-06T12:25:10;6.55;91.78
69776;DHT22;57049;51.450;-2.516;2024-01-06T12:27:35;6.72;91.35
69776;DHT22;57049;51.450;-2.516;2024-01-06T12:30:01;6.89;91.50
69776;DHT22;57049;51.450;-2.516;2024-01-06T12:32:26;7.02;90.49
69776;DHT22;57049;51.450;-2.516;2024-01-06T12:34:52;7.06;89.36
69776;DHT22;57049;51.450;-2.516;2024-01-06T12:37:17;7.00;89.45
69776;DHT22;57049;51.450;-2.516;2024-01-06T12:39:43;6.99;90.00
69776;DHT22;57049;51.450;-2.516;2024-01-06T12:42:10;7.00;89.61
69776;DHT22;57049;51.450;-2.516;2024-01-06T12:44:36;7.12;89.75
69776;DHT22;57049;51.450;-2.516;2024-01-06T12:47:04;7.23;88.25
69776;DHT22;57049;51.450;-2.516;2024-01-06T12:49:30;7.37;88.49
69776;DHT22;57049;51.450;-2.516;2024-01-06T12:51:55;7.47;88.05
69776;DHT22;57049;51.450;-2.516;2024-01-06T12:54:21;7.60;88.63
69776;DHT22;57049;51.450;-2.516;2024-01-06T12:56:47;7.64;88.17
69776;DHT22;57049;51.450;-2.516;2024-01-06T12:59:12;7.60;87.45
69776;DHT22;57049;51.450;-2.516;2024-01-06T13:01:38;7.61;87.72
69776;DHT22;57049;51.450;-2.516;2024-01-06T13:04:04;7.58;87.81
69776;DHT22;57049;51.450;-2.516;2024-01-06T13:06:30;7.54;87.77
69776;DHT22;57049;51.450;-2.516;2024-01-06T13:08:56;7.64;88.23
69776;DHT22;57049;51.450;-2.516;2024-01-06T13:11:21;7.51;87.73
69776;DHT22;57049;51.450;-2.516;2024-01-06T13:13:47;7.33;87.65
69776;DHT22;57049;51.450;-2.516;2024-01-06T13:16:13;7.31;88.34
69776;DHT22;57049;51.450;-2.516;2024-01-06T13:18:38;7.28;88.97
69776;DHT22;57049;51.450;-2.516;2024-01-06T13:21:04;7.26;88.83
69776;DHT22;57049;51.450;-2.516;2024-01-06T13:23:29;7.27;89.55
69776;DHT22;57049;51.450;-2.516;2024-01-06T13:25:54;7.30;89.44
69776;DHT22;57049;51.450;-2.516;2024-01-06T13:28:22;7.30;88.96
69776;DHT22;57049;51.450;-2.516;2024-01-06T13:30:49;7.28;88.74
69776;DHT22;57049;51.450;-2.516;2024-01-06T13:33:15;7.31;89.10
69776;DHT22;57049;51.450;-2.516;2024-01-06T13:35:40;7.43;88.94
69776;DHT22;57049;51.450;-2.516;2024-01-06T13:38:06;7.47;88.83
69776;DHT22;57049;51.450;-2.516;2024-01-06T13:40:31;7.46;88.59
69776;DHT22;57049;51.450;-2.516;2024-01-06T13:42:58;7.48;88.70
69776;DHT22;57049;51.450;-2.516;2024-01-06T13:45:24;7.33;88.57
69776;DHT22;57049;51.450;-2.516;2024-01-06T13:47:49;7.23;88.63
69776;DHT22;57049;51.450;-2.516;2024-01-06T13:50:16;7.20;90.06
69776;DHT22;57049;51.450;-2.516;2024-01-06T13:52:43;7.12;89.57
69776;DHT22;57049;51.450;-2.516;2024-01-06T13:55:08;7.09;89.39
69776;DHT22;57049;51.450;-2.516;2024-01-06T13:57:34;7.07;89.21
69776;DHT22;57049;51.450;-2.516;2024-01-06T14:00:00;7.17;89.58
69776;DHT22;57049;51.450;-2.516;2024-01-06T14:02:26;7.19;88.90
69776;DHT22;57049;51.450;-2.516;2024-01-06T14:04:51;7.26;89.16
69776;DHT22;57049;51.450;-2.516;2024-01-06T14:07:17;7.24;88.74
69776;DHT22;57049;51.450;-2.516;2024-01-06T14:09:47;7.30;88.62
69776;DHT22;57049;51.450;-2.516;2024-01-06T14:12:12;7.35;88.74
69776;DHT22;57049;51.450;-2.516;2024-01-06T14:14:39;7.43;88.97
69776;DHT22;57049;51.450;-2.516;2024-01-06T14:17:04;7.30;88.12
69776;DHT22;57049;51.450;-2.516;2024-01-06T14:19:30;7.28;89.05
69776;DHT22;57049;51.450;-2.516;2024-01-06T14:21:55;7.22;88.32
69776;DHT22;57049;51.450;-2.516;2024-01-06T14:24:21;7.26;88.93
69776;DHT22;57049;51.450;-2.516;2024-01-06T14:26:54;7.24;88.85
69776;DHT22;57049;51.450;-2.516;2024-01-06T14:29:22;7.30;89.07
69776;DHT22;57049;51.450;-2.516;2024-01-06T14:31:48;7.34;88.51
69776;DHT22;57049;51.450;-2.516;2024-01-06T14:34:14;7.41;88.98
69776;DHT22;57049;51.450;-2.516;2024-01-06T14:36:39;7.40;88.48
69776;DHT22;57049;51.450;-2.516;2024-01-06T14:39:13;7.38;88.78
69776;DHT22;57049;51.450;-2.516;2024-01-06T14:41:39;7.35;88.87
69776;DHT22;57049;51.450;-2.516;2024-01-06T14:44:04;7.34;88.46
69776;DHT22;57049;51.450;-2.516;2024-01-06T14:46:29;7.31;88.62
69776;DHT22;57049;51.450;-2.516;2024-01-06T14:48:57;7.31;88.53
69776;DHT22;57049;51.450;-2.516;2024-01-06T14:51:22;7.30;88.31
69776;DHT22;57049;51.450;-2.516;2024-01-06T14:53:48;7.23;88.01
69776;DHT22;57049;51.450;-2.516;2024-01-06T14:56:13;7.23;88.44
69776;DHT22;57049;51.450;-2.516;2024-01-06T14:58:39;7.19;89.02
69776;DHT22;57049;51.450;-2.516;2024-01-06T15:01:05;7.19;88.97
69776;DHT22;57049;51.450;-2.516;2024-01-06T15:03:31;7.19;89.20
69776;DHT22;57049;51.450;-2.516;2024-01-06T15:05:56;7.16;88.22
69776;DHT22;57049;51.450;-2.516;2024-01-06T15:08:22;7.17;86.91
69776;DHT22;57049;51.450;-2.516;2024-01-06T15:10:47;7.17;86.86
69776;DHT22;57049;51.450;-2.516;2024-01-06T15:13:12;7.19;87.19
69776;DHT22;57049;51.450;-2.516;2024-01-06T15:15:38;7.17;87.47
69776;DHT22;57049;51.450;-2.516;2024-01-06T15:18:04;7.16;87.76
69776;DHT22;57049;51.450;-2.516;2024-01-06T15:20:30;7.16;88.07
69776;DHT22;57049;51.450;-2.516;2024-01-06T15:22:56;7.16;87.65
69776;DHT22;57049;51.450;-2.516;2024-01-06T15:25:21;7.13;86.93
69776;DHT22;57049;51.450;-2.516;2024-01-06T15:27:47;7.07;87.10
69776;DHT22;57049;51.450;-2.516;2024-01-06T15:30:13;7.04;87.54
69776;DHT22;57049;51.450;-2.516;2024-01-06T15:32:41;7.04;87.76
69776;DHT22;57049;51.450;-2.516;2024-01-06T15:35:08;7.02;87.73